sensor_id;sensor_type;location;lat;lon;timestamp;P1;durP1;ratioP1;P2;durP2;ratioP2
75687;SDS011;64300;45.034;38.910;2023-02-26T00:01:24;5.00;;;1.25;;
75687;SDS011;64300;45.034;38.910;2023-02-26T00:03:53;3.28;;;1.40;;
75687;SDS011;64300;45.034;38.910;2023-02-26T00:06:21;2.58;;;1.10;;
75687;SDS011;64300;45.034;38.910;2023-02-26T00:08:48;5.55;;;1.20;;
75687;SDS011;64300;45.034;38.910;2023-02-26T00:11:14;4.07;;;1.35;;
75687;SDS011;64300;45.034;38.910;2023-02-26T00:13:41;5.25;;;1.40;;
75687;SDS011;64300;45.034;38.910;2023-02-26T00:19:14;4.55;;;1.38;;
75687;SDS011;64300;45.034;38.910;2023-02-26T00:21:40;2.97;;;1.20;;
75687;SDS011;64300;45.034;38.910;2023-02-26T00:24:06;3.38;;;1.35;;
75687;SDS011;64300;45.034;38.910;2023-02-26T00:26:32;3.55;;;1.40;;
75687;SDS011;64300;45.034;38.910;2023-02-26T00:28:59;4.60;;;1.27;;
75687;SDS011;64300;45.034;38.910;2023-02-26T00:31:27;4.05;;;1.27;;
75687;SDS011;64300;45.034;38.910;2023-02-26T00:33:56;3.55;;;1.20;;
75687;SDS011;64300;45.034;38.910;2023-02-26T00:42:12;3.47;;;1.30;;
75687;SDS011;64300;45.034;38.910;2023-02-26T00:44:39;3.83;;;1.25;;
75687;SDS011;64300;45.034;38.910;2023-02-26T00:47:09;3.58;;;1.50;;
75687;SDS011;64300;45.034;38.910;2023-02-26T00:55:46;3.97;;;1.40;;
75687;SDS011;64300;45.034;38.910;2023-02-26T00:58:12;4.85;;;1.50;;
75687;SDS011;64300;45.034;38.910;2023-02-26T01:00:37;3.60;;;1.20;;
75687;SDS011;64300;45.034;38.910;2023-02-26T01:03:03;3.58;;;1.30;;
75687;SDS011;64300;45.034;38.910;2023-02-26T01:05:30;4.43;;;1.30;;
75687;SDS011;64300;45.034;38.910;2023-02-26T01:10:28;4.07;;;1.58;;
75687;SDS011;64300;45.034;38.910;2023-02-26T01:12:55;2.92;;;1.20;;
75687;SDS011;64300;45.034;38.910;2023-02-26T01:15:22;4.70;;;1.40;;
75687;SDS011;64300;45.034;38.910;2023-02-26T01:17:59;4.45;;;1.40;;
75687;SDS011;64300;45.034;38.910;2023-02-26T01:20:57;3.47;;;1.35;;
75687;SDS011;64300;45.034;38.910;2023-02-26T01:23:31;3.25;;;1.42;;
75687;SDS011;64300;45.034;38.910;2023-02-26T01:26:04;3.05;;;1.20;;
75687;SDS011;64300;45.034;38.910;2023-02-26T01:28:34;3.58;;;1.17;;
75687;SDS011;64300;45.034;38.910;2023-02-26T01:31:01;3.40;;;1.20;;
75687;SDS011;64300;45.034;38.910;2023-02-26T01:33:34;3.78;;;1.20;;
75687;SDS011;64300;45.034;38.910;2023-02-26T01:36:16;3.53;;;1.17;;
75687;SDS011;64300;45.034;38.910;2023-02-26T01:41:32;3.38;;;1.42;;
75687;SDS011;64300;45.034;38.910;2023-02-26T01:49:29;3.10;;;1.02;;
75687;SDS011;64300;45.034;38.910;2023-02-26T01:51:56;3.78;;;1.40;;
75687;SDS011;64300;45.034;38.910;2023-02-26T01:54:32;3.38;;;1.15;;
75687;SDS011;64300;45.034;38.910;2023-02-26T01:57:10;4.72;;;1.50;;
75687;SDS011;64300;45.034;38.910;2023-02-26T01:59:40;2.90;;;1.30;;
75687;SDS011;64300;45.034;38.910;2023-02-26T02:02:09;4.22;;;1.33;;
75687;SDS011;64300;45.034;38.910;2023-02-26T02:04:36;3.40;;;1.50;;
75687;SDS011;64300;45.034;38.910;2023-02-26T02:07:05;3.78;;;1.50;;
75687;SDS011;64300;45.034;38.910;2023-02-26T02:09:31;3.38;;;1.50;;
75687;SDS011;64300;45.034;38.910;2023-02-26T02:14:28;4.20;;;1.20;;
75687;SDS011;64300;45.034;38.910;2023-02-26T02:17:15;3.42;;;1.25;;
75687;SDS011;64300;45.034;38.910;2023-02-26T02:31:20;3.42;;;1.27;;
75687;SDS011;64300;45.034;38.910;2023-02-26T02:33:54;3.85;;;0.93;;
75687;SDS011;64300;45.034;38.910;2023-02-26T02:39:24;3.63;;;1.08;;
75687;SDS011;64300;45.034;38.910;2023-02-26T02:42:03;4.18;;;1.40;;
75687;SDS011;64300;45.034;38.910;2023-02-26T02:44:35;3.97;;;1.15;;
75687;SDS011;64300;45.034;38.910;2023-02-26T02:47:05;6.05;;;1.40;;
75687;SDS011;64300;45.034;38.910;2023-02-26T02:49:35;3.25;;;1.27;;
75687;SDS011;64300;45.034;38.910;2023-02-26T02:52:57;4.47;;;1.33;;
75687;SDS011;64300;45.034;38.910;2023-02-26T02:55:26;3.90;;;1.38;;
75687;SDS011;64300;45.034;38.910;2023-02-26T03:00:29;4.20;;;1.13;;
75687;SDS011;64300;45.034;38.910;2023-02-26T03:02:59;3.08;;;1.13;;
75687;SDS011;64300;45.034;38.910;2023-02-26T03:05:31;8.13;;;1.45;;
75687;SDS011;64300;45.034;38.910;2023-02-26T03:08:01;3.45;;;1.50;;
75687;SDS011;64300;45.034;38.910;2023-02-26T03:10:33;4.00;;;1.42;;
75687;SDS011;64300;45.034;38.910;2023-02-26T03:12:59;3.70;;;1.45;;
75687;SDS011;64300;45.034;38.910;2023-02-26T03:15:41;4.20;;;1.30;;
75687;SDS011;64300;45.034;38.910;2023-02-26T03:18:30;5.63;;;1.55;;
75687;SDS011;64300;45.034;38.910;2023-02-26T03:26:36;3.72;;;1.30;;
75687;SDS011;64300;45.034;38.910;2023-02-26T03:34:26;6.18;;;1.50;;
75687;SDS011;64300;45.034;38.910;2023-02-26T03:37:27;3.10;;;1.30;;
75687;SDS011;64300;45.034;38.910;2023-02-26T03:40:03;2.80;;;1.00;;
75687;SDS011;64300;45.034;38.910;2023-02-26T03:42:42;3.20;;;1.17;;
75687;SDS011;64300;45.034;38.910;2023-02-26T03:45:30;3.72;;;1.17;;
75687;SDS011;64300;45.034;38.910;2023-02-26T03:47:59;3.50;;;1.30;;
75687;SDS011;64300;45.034;38.910;2023-02-26T03:50:32;5.07;;;1.90;;
75687;SDS011;64300;45.034;38.910;2023-02-26T03:53:30;4.25;;;1.42;;
75687;SDS011;64300;45.034;38.910;2023-02-26T03:56:15;2.72;;;0.95;;
75687;SDS011;64300;45.034;38.910;2023-02-26T03:59:10;4.15;;;1.52;;
75687;SDS011;64300;45.034;38.910;2023-02-26T04:01:53;5.05;;;1.40;;
75687;SDS011;64300;45.034;38.910;2023-02-26T04:04:29;3.25;;;1.33;;
75687;SDS011;64300;45.034;38.910;2023-02-26T04:07:14;5.88;;;1.60;;
75687;SDS011;64300;45.034;38.910;2023-02-26T04:09:46;4.40;;;1.38;;
75687;SDS011;64300;45.034;38.910;2023-02-26T04:12:14;3.00;;;1.20;;
75687;SDS011;64300;45.034;38.910;2023-02-26T04:14:45;4.32;;;1.63;;
75687;SDS011;64300;45.034;38.910;2023-02-26T04:17:11;4.20;;;1.52;;
75687;SDS011;64300;45.034;38.910;2023-02-26T04:19:37;3.08;;;1.20;;
75687;SDS011;64300;45.034;38.910;2023-02-26T04:22:05;4.05;;;1.50;;
75687;SDS011;64300;45.034;38.910;2023-02-26T04:24:31;3.42;;;1.20;;
75687;SDS011;64300;45.034;38.910;2023-02-26T04:27:00;3.55;;;1.08;;
75687;SDS011;64300;45.034;38.910;2023-02-26T04:29:26;6.28;;;1.75;;
75687;SDS011;64300;45.034;38.910;2023-02-26T04:31:52;4.85;;;1.35;;
75687;SDS011;64300;45.034;38.910;2023-02-26T04:34:18;6.90;;;1.08;;
75687;SDS011;64300;45.034;38.910;2023-02-26T04:36:45;6.88;;;1.45;;
75687;SDS011;64300;45.034;38.910;2023-02-26T04:39:11;3.08;;;1.38;;
75687;SDS011;64300;45.034;38.910;2023-02-26T04:41:37;4.97;;;1.42;;
75687;SDS011;64300;45.034;38.910;2023-02-26T04:44:04;7.65;;;1.30;;
75687;SDS011;64300;45.034;38.910;2023-02-26T04:46:31;9.40;;;1.38;;
75687;SDS011;64300;45.034;38.910;2023-02-26T04:48:57;4.35;;;1.25;;
75687;SDS011;64300;45.034;38.910;2023-02-26T04:51:23;3.50;;;1.30;;
75687;SDS011;64300;45.034;38.910;2023-02-26T04:53:50;3.95;;;1.17;;
75687;SDS011;64300;45.034;38.910;2023-02-26T04:56:17;5.50;;;1.30;;
75687;SDS011;64300;45.034;38.910;2023-02-26T04:58:44;2.83;;;1.30;;
75687;SDS011;64300;45.034;38.910;2023-02-26T05:01:15;5.00;;;1.35;;
75687;SDS011;64300;45.034;38.910;2023-02-26T05:03:41;4.22;;;1.17;;
75687;SDS011;64300;45.034;38.910;2023-02-26T05:06:08;4.30;;;1.52;;
75687;SDS011;64300;45.034;38.910;2023-02-26T05:08:33;5.07;;;1.35;;
75687;SDS011;64300;45.034;38.910;2023-02-26T05:10:59;3.75;;;1.60;;
75687;SDS011;64300;45.034;38.910;2023-02-26T05:13:26;4.82;;;1.42;;
75687;SDS011;64300;45.034;38.910;2023-02-26T05:15:52;4.25;;;1.67;;
75687;SDS011;64300;45.034;38.910;2023-02-26T05:18:19;3.35;;;1.30;;
75687;SDS011;64300;45.034;38.910;2023-02-26T05:20:50;6.00;;;1.50;;
75687;SDS011;64300;45.034;38.910;2023-02-26T05:23:22;7.30;;;1.70;;
75687;SDS011;64300;45.034;38.910;2023-02-26T05:25:48;7.82;;;1.88;;
75687;SDS011;64300;45.034;38.910;2023-02-26T05:28:15;3.17;;;1.08;;
75687;SDS011;64300;45.034;38.910;2023-02-26T05:30:42;3.85;;;1.85;;
75687;SDS011;64300;45.034;38.910;2023-02-26T05:33:08;4.22;;;1.52;;
75687;SDS011;64300;45.034;38.910;2023-02-26T05:35:34;6.18;;;1.40;;
75687;SDS011;64300;45.034;38.910;2023-02-26T05:38:00;5.95;;;1.42;;
75687;SDS011;64300;45.034;38.910;2023-02-26T05:40:25;6.53;;;1.70;;
75687;SDS011;64300;45.034;38.910;2023-02-26T05:42:51;6.03;;;1.52;;
75687;SDS011;64300;45.034;38.910;2023-02-26T05:45:17;8.43;;;1.50;;
75687;SDS011;64300;45.034;38.910;2023-02-26T05:47:43;4.28;;;1.73;;
75687;SDS011;64300;45.034;38.910;2023-02-26T05:50:09;4.05;;;1.67;;
75687;SDS011;64300;45.034;38.910;2023-02-26T05:52:36;5.22;;;1.60;;
75687;SDS011;64300;45.034;38.910;2023-02-26T05:55:01;6.05;;;1.67;;
75687;SDS011;64300;45.034;38.910;2023-02-26T05:57:27;6.50;;;1.90;;
75687;SDS011;64300;45.034;38.910;2023-02-26T05:59:54;5.13;;;1.83;;
75687;SDS011;64300;45.034;38.910;2023-02-26T06:02:20;8.48;;;2.00;;
75687;SDS011;64300;45.034;38.910;2023-02-26T06:04:45;9.20;;;1.80;;
75687;SDS011;64300;45.034;38.910;2023-02-26T06:07:11;5.78;;;1.80;;
75687;SDS011;64300;45.034;38.910;2023-02-26T06:09:38;6.32;;;2.22;;
75687;SDS011;64300;45.034;38.910;2023-02-26T06:12:04;6.10;;;1.65;;
75687;SDS011;64300;45.034;38.910;2023-02-26T06:14:31;6.40;;;1.77;;
75687;SDS011;64300;45.034;38.910;2023-02-26T06:16:57;7.93;;;1.65;;
75687;SDS011;64300;45.034;38.910;2023-02-26T06:19:23;5.25;;;1.80;;
75687;SDS011;64300;45.034;38.910;2023-02-26T06:21:49;4.68;;;1.70;;
75687;SDS011;64300;45.034;38.910;2023-02-26T06:24:15;6.18;;;1.63;;
75687;SDS011;64300;45.034;38.910;2023-02-26T06:26:41;9.10;;;1.88;;
75687;SDS011;64300;45.034;38.910;2023-02-26T06:29:10;9.98;;;1.48;;
75687;SDS011;64300;45.034;38.910;2023-02-26T06:31:36;6.10;;;1.88;;
75687;SDS011;64300;45.034;38.910;2023-02-26T06:34:02;7.38;;;1.90;;
75687;SDS011;64300;45.034;38.910;2023-02-26T06:36:28;4.18;;;2.30;;
75687;SDS011;64300;45.034;38.910;2023-02-26T06:38:54;5.13;;;1.77;;
75687;SDS011;64300;45.034;38.910;2023-02-26T06:41:21;7.50;;;1.67;;
75687;SDS011;64300;45.034;38.910;2023-02-26T06:43:47;8.32;;;1.80;;
75687;SDS011;64300;45.034;38.910;2023-02-26T06:46:12;6.78;;;1.90;;
75687;SDS011;64300;45.034;38.910;2023-02-26T06:48:38;12.02;;;2.10;;
75687;SDS011;64300;45.034;38.910;2023-02-26T06:51:04;8.40;;;1.85;;
75687;SDS011;64300;45.034;38.910;2023-02-26T06:53:33;5.55;;;2.10;;
75687;SDS011;64300;45.034;38.910;2023-02-26T06:55:59;4.43;;;1.65;;
75687;SDS011;64300;45.034;38.910;2023-02-26T06:58:25;4.82;;;1.80;;
75687;SDS011;64300;45.034;38.910;2023-02-26T07:00:51;4.90;;;1.73;;
75687;SDS011;64300;45.034;38.910;2023-02-26T07:03:17;8.30;;;2.08;;
75687;SDS011;64300;45.034;38.910;2023-02-26T07:05:44;5.25;;;2.20;;
75687;SDS011;64300;45.034;38.910;2023-02-26T07:08:10;7.50;;;1.92;;
75687;SDS011;64300;45.034;38.910;2023-02-26T07:10:46;11.23;;;1.80;;
75687;SDS011;64300;45.034;38.910;2023-02-26T07:13:14;6.13;;;2.15;;
75687;SDS011;64300;45.034;38.910;2023-02-26T07:15:40;5.53;;;2.28;;
75687;SDS011;64300;45.034;38.910;2023-02-26T07:18:10;5.68;;;2.00;;
75687;SDS011;64300;45.034;38.910;2023-02-26T07:20:36;4.43;;;2.20;;
75687;SDS011;64300;45.034;38.910;2023-02-26T07:23:03;5.00;;;2.03;;
75687;SDS011;64300;45.034;38.910;2023-02-26T07:25:29;11.60;;;2.40;;
75687;SDS011;64300;45.034;38.910;2023-02-26T07:27:55;7.28;;;2.15;;
75687;SDS011;64300;45.034;38.910;2023-02-26T07:30:25;5.10;;;2.15;;
75687;SDS011;64300;45.034;38.910;2023-02-26T07:32:53;14.45;;;2.30;;
75687;SDS011;64300;45.034;38.910;2023-02-26T07:35:19;5.15;;;2.00;;
75687;SDS011;64300;45.034;38.910;2023-02-26T07:37:45;4.40;;;2.00;;
75687;SDS011;64300;45.034;38.910;2023-02-26T07:40:11;6.25;;;2.20;;
75687;SDS011;64300;45.034;38.910;2023-02-26T07:42:38;5.10;;;2.25;;
75687;SDS011;64300;45.034;38.910;2023-02-26T07:45:04;3.92;;;1.92;;
75687;SDS011;64300;45.034;38.910;2023-02-26T07:47:32;8.25;;;2.63;;
75687;SDS011;64300;45.034;38.910;2023-02-26T07:49:59;6.32;;;2.50;;
75687;SDS011;64300;45.034;38.910;2023-02-26T07:52:25;6.43;;;2.30;;
75687;SDS011;64300;45.034;38.910;2023-02-26T07:54:51;9.88;;;2.47;;
75687;SDS011;64300;45.034;38.910;2023-02-26T07:57:18;6.82;;;2.35;;
75687;SDS011;64300;45.034;38.910;2023-02-26T07:59:43;5.57;;;2.00;;
75687;SDS011;64300;45.034;38.910;2023-02-26T08:02:10;6.80;;;1.98;;
75687;SDS011;64300;45.034;38.910;2023-02-26T08:04:37;9.90;;;2.40;;
75687;SDS011;64300;45.034;38.910;2023-02-26T08:07:04;6.32;;;2.08;;
75687;SDS011;64300;45.034;38.910;2023-02-26T08:09:30;5.63;;;2.78;;
75687;SDS011;64300;45.034;38.910;2023-02-26T08:11:56;7.20;;;2.10;;
75687;SDS011;64300;45.034;38.910;2023-02-26T08:14:22;7.93;;;2.50;;
75687;SDS011;64300;45.034;38.910;2023-02-26T08:16:48;7.95;;;2.50;;
75687;SDS011;64300;45.034;38.910;2023-02-26T08:19:15;8.30;;;2.55;;
75687;SDS011;64300;45.034;38.910;2023-02-26T08:21:41;7.20;;;2.17;;
75687;SDS011;64300;45.034;38.910;2023-02-26T08:24:07;6.20;;;2.13;;
75687;SDS011;64300;45.034;38.910;2023-02-26T08:26:35;7.95;;;2.30;;
75687;SDS011;64300;45.034;38.910;2023-02-26T08:29:02;13.77;;;2.40;;
75687;SDS011;64300;45.034;38.910;2023-02-26T08:31:28;4.97;;;2.33;;
75687;SDS011;64300;45.034;38.910;2023-02-26T08:33:55;6.85;;;2.42;;
75687;SDS011;64300;45.034;38.910;2023-02-26T08:42:04;6.03;;;2.03;;
75687;SDS011;64300;45.034;38.910;2023-02-26T08:44:31;7.30;;;2.50;;
75687;SDS011;64300;45.034;38.910;2023-02-26T08:46:58;5.80;;;2.60;;
75687;SDS011;64300;45.034;38.910;2023-02-26T08:52:17;7.05;;;2.15;;
75687;SDS011;64300;45.034;38.910;2023-02-26T08:54:44;9.52;;;2.65;;
75687;SDS011;64300;45.034;38.910;2023-02-26T08:57:10;4.63;;;2.25;;
75687;SDS011;64300;45.034;38.910;2023-02-26T08:59:36;6.25;;;2.17;;
75687;SDS011;64300;45.034;38.910;2023-02-26T09:02:02;5.07;;;2.20;;
75687;SDS011;64300;45.034;38.910;2023-02-26T09:04:28;4.68;;;2.30;;
75687;SDS011;64300;45.034;38.910;2023-02-26T09:06:54;5.95;;;2.67;;
75687;SDS011;64300;45.034;38.910;2023-02-26T09:09:20;5.82;;;2.30;;
75687;SDS011;64300;45.034;38.910;2023-02-26T09:11:54;9.45;;;2.17;;
75687;SDS011;64300;45.034;38.910;2023-02-26T09:14:20;5.15;;;2.30;;
75687;SDS011;64300;45.034;38.910;2023-02-26T09:16:46;8.00;;;2.60;;
75687;SDS011;64300;45.034;38.910;2023-02-26T09:19:12;12.73;;;2.45;;
75687;SDS011;64300;45.034;38.910;2023-02-26T09:21:38;9.75;;;2.60;;
75687;SDS011;64300;45.034;38.910;2023-02-26T09:24:04;5.07;;;2.08;;
75687;SDS011;64300;45.034;38.910;2023-02-26T09:26:30;5.78;;;2.40;;
75687;SDS011;64300;45.034;38.910;2023-02-26T09:28:56;8.05;;;2.38;;
75687;SDS011;64300;45.034;38.910;2023-02-26T09:31:22;6.22;;;2.63;;
75687;SDS011;64300;45.034;38.910;2023-02-26T09:33:48;6.53;;;2.83;;
75687;SDS011;64300;45.034;38.910;2023-02-26T09:36:13;4.63;;;2.40;;
75687;SDS011;64300;45.034;38.910;2023-02-26T09:38:39;6.78;;;2.63;;
75687;SDS011;64300;45.034;38.910;2023-02-26T09:41:12;4.53;;;2.40;;
75687;SDS011;64300;45.034;38.910;2023-02-26T09:52:00;6.38;;;2.75;;
75687;SDS011;64300;45.034;38.910;2023-02-26T09:54:41;10.40;;;2.50;;
75687;SDS011;64300;45.034;38.910;2023-02-26T09:57:14;9.30;;;2.67;;
75687;SDS011;64300;45.034;38.910;2023-02-26T09:59:48;8.57;;;2.58;;
75687;SDS011;64300;45.034;38.910;2023-02-26T10:02:29;8.77;;;2.17;;
75687;SDS011;64300;45.034;38.910;2023-02-26T10:07:59;5.80;;;2.20;;
75687;SDS011;64300;45.034;38.910;2023-02-26T10:13:15;5.15;;;2.30;;
75687;SDS011;64300;45.034;38.910;2023-02-26T10:18:31;4.90;;;2.22;;
75687;SDS011;64300;45.034;38.910;2023-02-26T10:21:03;9.35;;;3.05;;
75687;SDS011;64300;45.034;38.910;2023-02-26T10:23:37;8.93;;;3.33;;
75687;SDS011;64300;45.034;38.910;2023-02-26T10:26:18;13.07;;;2.80;;
75687;SDS011;64300;45.034;38.910;2023-02-26T10:28:56;9.15;;;2.95;;
75687;SDS011;64300;45.034;38.910;2023-02-26T10:34:25;5.47;;;2.60;;
75687;SDS011;64300;45.034;38.910;2023-02-26T10:42:45;8.40;;;3.53;;
75687;SDS011;64300;45.034;38.910;2023-02-26T10:51:21;23.25;;;3.72;;
75687;SDS011;64300;45.034;38.910;2023-02-26T10:53:57;11.88;;;3.17;;
75687;SDS011;64300;45.034;38.910;2023-02-26T10:56:30;5.28;;;3.22;;
75687;SDS011;64300;45.034;38.910;2023-02-26T10:58:57;7.28;;;2.63;;
75687;SDS011;64300;45.034;38.910;2023-02-26T11:01:24;8.52;;;2.90;;
75687;SDS011;64300;45.034;38.910;2023-02-26T11:04:02;8.40;;;2.88;;
75687;SDS011;64300;45.034;38.910;2023-02-26T11:06:58;5.47;;;3.08;;
75687;SDS011;64300;45.034;38.910;2023-02-26T11:11:53;6.32;;;2.63;;
75687;SDS011;64300;45.034;38.910;2023-02-26T11:14:22;6.60;;;2.80;;
75687;SDS011;64300;45.034;38.910;2023-02-26T11:16:51;9.63;;;3.03;;
75687;SDS011;64300;45.034;38.910;2023-02-26T11:19:27;9.10;;;2.88;;
75687;SDS011;64300;45.034;38.910;2023-02-26T11:21:55;6.18;;;3.20;;
75687;SDS011;64300;45.034;38.910;2023-02-26T11:24:33;5.78;;;2.80;;
75687;SDS011;64300;45.034;38.910;2023-02-26T11:27:13;8.60;;;3.03;;
75687;SDS011;64300;45.034;38.910;2023-02-26T11:29:55;6.32;;;3.03;;
75687;SDS011;64300;45.034;38.910;2023-02-26T11:32:28;8.48;;;3.10;;
75687;SDS011;64300;45.034;38.910;2023-02-26T11:34:57;9.70;;;3.22;;
75687;SDS011;64300;45.034;38.910;2023-02-26T11:37:34;7.32;;;3.10;;
75687;SDS011;64300;45.034;38.910;2023-02-26T11:40:13;7.20;;;3.22;;
75687;SDS011;64300;45.034;38.910;2023-02-26T11:43:13;7.13;;;2.75;;
75687;SDS011;64300;45.034;38.910;2023-02-26T11:49:04;6.88;;;3.20;;
75687;SDS011;64300;45.034;38.910;2023-02-26T11:51:13;7.70;;;3.15;;
75687;SDS011;64300;45.034;38.910;2023-02-26T11:56:23;7.10;;;3.10;;
75687;SDS011;64300;45.034;38.910;2023-02-26T11:58:52;7.30;;;2.90;;
75687;SDS011;64300;45.034;38.910;2023-02-26T12:04:00;6.82;;;2.78;;
75687;SDS011;64300;45.034;38.910;2023-02-26T12:06:27;5.60;;;2.80;;
75687;SDS011;64300;45.034;38.910;2023-02-26T12:08:53;8.80;;;3.00;;
75687;SDS011;64300;45.034;38.910;2023-02-26T12:14:07;7.30;;;3.40;;
75687;SDS011;64300;45.034;38.910;2023-02-26T12:22:22;5.97;;;3.35;;
75687;SDS011;64300;45.034;38.910;2023-02-26T12:25:13;12.80;;;3.65;;
75687;SDS011;64300;45.034;38.910;2023-02-26T12:28:01;8.45;;;3.50;;
75687;SDS011;64300;45.034;38.910;2023-02-26T12:33:30;7.47;;;3.15;;
75687;SDS011;64300;45.034;38.910;2023-02-26T12:39:19;8.65;;;3.63;;
75687;SDS011;64300;45.034;38.910;2023-02-26T12:42:18;7.60;;;3.22;;
75687;SDS011;64300;45.034;38.910;2023-02-26T12:58:30;7.32;;;3.22;;
75687;SDS011;64300;45.034;38.910;2023-02-26T13:11:59;10.63;;;2.88;;
75687;SDS011;64300;45.034;38.910;2023-02-26T13:20:26;8.40;;;3.60;;
75687;SDS011;64300;45.034;38.910;2023-02-26T13:25:40;9.02;;;3.30;;
75687;SDS011;64300;45.034;38.910;2023-02-26T13:31:44;6.68;;;3.35;;
75687;SDS011;64300;45.034;38.910;2023-02-26T13:34:17;7.97;;;3.45;;
75687;SDS011;64300;45.034;38.910;2023-02-26T13:36:50;7.68;;;2.90;;
75687;SDS011;64300;45.034;38.910;2023-02-26T13:44:41;9.15;;;3.15;;
75687;SDS011;64300;45.034;38.910;2023-02-26T13:56:07;5.22;;;3.20;;
75687;SDS011;64300;45.034;38.910;2023-02-26T13:58:38;6.43;;;2.95;;
75687;SDS011;64300;45.034;38.910;2023-02-26T14:01:08;5.50;;;2.88;;
75687;SDS011;64300;45.034;38.910;2023-02-26T14:03:52;6.07;;;2.85;;
75687;SDS011;64300;45.034;38.910;2023-02-26T14:06:41;12.32;;;3.75;;
75687;SDS011;64300;45.034;38.910;2023-02-26T14:09:42;6.65;;;3.00;;
75687;SDS011;64300;45.034;38.910;2023-02-26T14:17:50;11.20;;;3.08;;
75687;SDS011;64300;45.034;38.910;2023-02-26T14:20:34;13.95;;;3.95;;
75687;SDS011;64300;45.034;38.910;2023-02-26T14:25:35;10.77;;;2.95;;
75687;SDS011;64300;45.034;38.910;2023-02-26T14:31:11;6.47;;;3.25;;
75687;SDS011;64300;45.034;38.910;2023-02-26T14:33:59;7.22;;;3.22;;
75687;SDS011;64300;45.034;38.910;2023-02-26T14:36:46;6.72;;;2.88;;
75687;SDS011;64300;45.034;38.910;2023-02-26T14:41:50;6.97;;;3.25;;
75687;SDS011;64300;45.034;38.910;2023-02-26T14:47:14;6.65;;;3.33;;
75687;SDS011;64300;45.034;38.910;2023-02-26T14:49:43;8.27;;;3.20;;
75687;SDS011;64300;45.034;38.910;2023-02-26T14:52:18;7.30;;;3.22;;
75687;SDS011;64300;45.034;38.910;2023-02-26T15:00:35;6.70;;;2.90;;
75687;SDS011;64300;45.034;38.910;2023-02-26T15:05:59;9.27;;;3.00;;
75687;SDS011;64300;45.034;38.910;2023-02-26T15:13:52;5.93;;;2.85;;
75687;SDS011;64300;45.034;38.910;2023-02-26T15:16:43;9.48;;;3.35;;
75687;SDS011;64300;45.034;38.910;2023-02-26T15:24:17;9.52;;;3.00;;
75687;SDS011;64300;45.034;38.910;2023-02-26T15:26:45;8.10;;;3.50;;
75687;SDS011;64300;45.034;38.910;2023-02-26T15:29:15;9.80;;;3.80;;
75687;SDS011;64300;45.034;38.910;2023-02-26T15:31:45;8.80;;;4.15;;
75687;SDS011;64300;45.034;38.910;2023-02-26T15:34:18;7.03;;;3.63;;
75687;SDS011;64300;45.034;38.910;2023-02-26T15:36:47;11.15;;;3.63;;
75687;SDS011;64300;45.034;38.910;2023-02-26T15:39:15;9.27;;;3.60;;
75687;SDS011;64300;45.034;38.910;2023-02-26T15:41:42;15.20;;;3.90;;
75687;SDS011;64300;45.034;38.910;2023-02-26T15:44:18;9.00;;;4.35;;
75687;SDS011;64300;45.034;38.910;2023-02-26T15:47:03;11.50;;;4.40;;
75687;SDS011;64300;45.034;38.910;2023-02-26T15:49:36;9.82;;;4.68;;
75687;SDS011;64300;45.034;38.910;2023-02-26T15:52:09;8.52;;;3.28;;
75687;SDS011;64300;45.034;38.910;2023-02-26T15:57:06;10.93;;;4.72;;
75687;SDS011;64300;45.034;38.910;2023-02-26T15:59:35;11.80;;;4.88;;
75687;SDS011;64300;45.034;38.910;2023-02-26T16:02:10;11.15;;;5.15;;
75687;SDS011;64300;45.034;38.910;2023-02-26T16:04:41;10.07;;;4.10;;
75687;SDS011;64300;45.034;38.910;2023-02-26T16:07:08;13.27;;;4.45;;
75687;SDS011;64300;45.034;38.910;2023-02-26T16:09:40;11.35;;;4.60;;
75687;SDS011;64300;45.034;38.910;2023-02-26T16:12:11;8.40;;;3.72;;
75687;SDS011;64300;45.034;38.910;2023-02-26T16:14:44;9.30;;;3.95;;
75687;SDS011;64300;45.034;38.910;2023-02-26T16:20:11;7.93;;;3.80;;
75687;SDS011;64300;45.034;38.910;2023-02-26T16:22:42;13.15;;;4.43;;
75687;SDS011;64300;45.034;38.910;2023-02-26T16:25:29;7.43;;;3.70;;
75687;SDS011;64300;45.034;38.910;2023-02-26T16:28:05;12.65;;;3.70;;
75687;SDS011;64300;45.034;38.910;2023-02-26T16:30:37;8.50;;;3.60;;
75687;SDS011;64300;45.034;38.910;2023-02-26T16:33:13;9.65;;;3.65;;
75687;SDS011;64300;45.034;38.910;2023-02-26T16:35:48;9.10;;;3.60;;
75687;SDS011;64300;45.034;38.910;2023-02-26T16:40:47;13.75;;;3.83;;
75687;SDS011;64300;45.034;38.910;2023-02-26T16:45:49;11.20;;;3.78;;
75687;SDS011;64300;45.034;38.910;2023-02-26T16:48:26;7.63;;;3.10;;
75687;SDS011;64300;45.034;38.910;2023-02-26T16:50:56;7.05;;;2.80;;
75687;SDS011;64300;45.034;38.910;2023-02-26T16:53:34;6.38;;;2.80;;
75687;SDS011;64300;45.034;38.910;2023-02-26T16:56:19;9.55;;;3.70;;
75687;SDS011;64300;45.034;38.910;2023-02-26T16:58:54;6.25;;;2.60;;
75687;SDS011;64300;45.034;38.910;2023-02-26T17:01:35;5.53;;;2.67;;
75687;SDS011;64300;45.034;38.910;2023-02-26T17:04:06;5.82;;;2.70;;
75687;SDS011;64300;45.034;38.910;2023-02-26T17:06:37;5.05;;;2.38;;
75687;SDS011;64300;45.034;38.910;2023-02-26T17:09:04;6.43;;;2.65;;
75687;SDS011;64300;45.034;38.910;2023-02-26T17:11:38;6.43;;;2.67;;
75687;SDS011;64300;45.034;38.910;2023-02-26T17:14:21;6.50;;;3.08;;
75687;SDS011;64300;45.034;38.910;2023-02-26T17:16:51;7.18;;;2.60;;
75687;SDS011;64300;45.034;38.910;2023-02-26T17:19:18;6.85;;;2.60;;
75687;SDS011;64300;45.034;38.910;2023-02-26T17:21:49;9.13;;;2.88;;
75687;SDS011;64300;45.034;38.910;2023-02-26T17:24:37;8.07;;;2.88;;
75687;SDS011;64300;45.034;38.910;2023-02-26T17:27:26;12.50;;;3.03;;
75687;SDS011;64300;45.034;38.910;2023-02-26T17:29:55;5.15;;;2.83;;
75687;SDS011;64300;45.034;38.910;2023-02-26T17:32:24;7.88;;;2.60;;
75687;SDS011;64300;45.034;38.910;2023-02-26T17:34:52;7.88;;;2.22;;
75687;SDS011;64300;45.034;38.910;2023-02-26T17:37:20;5.43;;;2.63;;
75687;SDS011;64300;45.034;38.910;2023-02-26T17:39:50;6.93;;;3.10;;
75687;SDS011;64300;45.034;38.910;2023-02-26T17:42:17;6.43;;;2.60;;
75687;SDS011;64300;45.034;38.910;2023-02-26T17:44:45;8.77;;;2.80;;
75687;SDS011;64300;45.034;38.910;2023-02-26T17:47:22;7.25;;;2.80;;
75687;SDS011;64300;45.034;38.910;2023-02-26T17:49:50;7.72;;;3.00;;
75687;SDS011;64300;45.034;38.910;2023-02-26T17:52:17;5.82;;;2.75;;
75687;SDS011;64300;45.034;38.910;2023-02-26T17:54:45;5.93;;;2.88;;
75687;SDS011;64300;45.034;38.910;2023-02-26T17:57:16;5.38;;;2.67;;
75687;SDS011;64300;45.034;38.910;2023-02-26T17:59:43;7.90;;;2.85;;
75687;SDS011;64300;45.034;38.910;2023-02-26T18:02:20;5.47;;;3.10;;
75687;SDS011;64300;45.034;38.910;2023-02-26T18:04:49;5.03;;;2.83;;
75687;SDS011;64300;45.034;38.910;2023-02-26T18:07:18;7.68;;;2.80;;
75687;SDS011;64300;45.034;38.910;2023-02-26T18:09:46;7.47;;;3.40;;
75687;SDS011;64300;45.034;38.910;2023-02-26T18:12:15;9.45;;;2.97;;
75687;SDS011;64300;45.034;38.910;2023-02-26T18:14:45;7.57;;;2.60;;
75687;SDS011;64300;45.034;38.910;2023-02-26T18:17:25;5.30;;;3.00;;
75687;SDS011;64300;45.034;38.910;2023-02-26T18:19:54;6.22;;;2.53;;
75687;SDS011;64300;45.034;38.910;2023-02-26T18:22:20;5.97;;;2.85;;
75687;SDS011;64300;45.034;38.910;2023-02-26T18:24:52;6.93;;;2.97;;
75687;SDS011;64300;45.034;38.910;2023-02-26T18:27:21;8.93;;;2.80;;
75687;SDS011;64300;45.034;38.910;2023-02-26T18:29:48;5.65;;;2.70;;
75687;SDS011;64300;45.034;38.910;2023-02-26T18:32:16;7.30;;;3.30;;
75687;SDS011;64300;45.034;38.910;2023-02-26T18:34:46;5.18;;;2.70;;